Weather at Bamberg-Breitenau Airfield

Public forecast

Using degrees Celsius for public forecast. Weather courtesy of forecast.io.

Closest aviation weather report (METAR) to Bamberg-Breitenau Airfield

Closest report is Nuremberg Airport, 26.1 nm (48.3 km) SSE.

2024/05/20 01:50 (retrieved 29 minutes ago)

EDDN 200150Z AUTO 09005KT CAVOK 09/09 Q1011

Closest aviation forecast (TAF) to Bamberg-Breitenau Airfield

Forecast is more than 12 hours old.

Closest forecast is Wiesbaden Army Airfield, 100.2 nm (185.6 km) W.

2024/05/18 09:30 Ammendment (retrieved 2 days ago)

TAF AMD ETOU 180920Z 1809/1910 VRB06KT 8000 -SHRA SCT005 OVC010 QNH2978INS TEMPO 1804/1810 BKN005 BECMG 1813/1814 VRB06KT 9000 -SHRA FEW010 BKN020 OVC040 QNH2980INS BECMG 1815/1816 VRB06KT 9000 -SHRA FEW015 SCT030 OVC040 QNH2979INS BECMG 1817/1818 VRB06KT 9000 -SHRA SCT025 OVC040 QNH2980INS BECMG 1819/1820 VRB06KT 8000 BR FEW020 BKN027 OVC040 QNH2981INS BECMG 1907/1908 VRB06KT 8000 -SHRA SCT010 OVC020 QNH2982INS TX19/1814Z TN11/1901Z LAST NO AMDS AFT 1809 NEXT 2004